createdAt,value
2022-08-01T00:00:45.711Z,1.55
2022-08-01T00:05:49.951Z,1.40
2022-08-01T00:10:52.714Z,1.50
2022-08-01T00:15:55.408Z,1.65
2022-08-01T00:20:59.776Z,1.35
2022-08-01T00:26:02.790Z,1.65
2022-08-01T00:31:05.549Z,1.73
2022-08-01T00:36:09.774Z,1.70
2022-08-01T00:41:12.657Z,1.60
2022-08-01T00:46:15.745Z,1.50
2022-08-01T00:51:19.973Z,1.67
2022-08-01T00:56:23.837Z,1.70
2022-08-01T01:01:39.271Z,1.60
2022-08-01T01:06:50.702Z,1.80
2022-08-01T01:12:00.481Z,1.38
2022-08-01T01:17:04.991Z,1.55
2022-08-01T01:22:21.514Z,1.60
2022-08-01T01:27:31.463Z,1.55
2022-08-01T01:32:38.281Z,1.58
2022-08-01T01:37:41.857Z,2.15
2022-08-01T01:42:45.513Z,1.85
2022-08-01T01:47:50.081Z,1.63
2022-08-01T01:52:53.360Z,1.98
2022-08-01T01:57:57.877Z,2.35
2022-08-01T02:03:03.583Z,1.83
2022-08-01T02:08:07.005Z,1.88
2022-08-01T02:13:11.950Z,2.03
2022-08-01T02:18:17.128Z,2.20
2022-08-01T02:23:23.220Z,2.17
2022-08-01T02:28:29.199Z,2.45
2022-08-01T02:33:37.329Z,2.17
2022-08-01T02:38:45.394Z,2.30
2022-08-01T02:43:53.347Z,2.25
2022-08-01T02:48:58.954Z,2.03
2022-08-01T02:54:04.197Z,2.00
2022-08-01T02:59:10.140Z,2.28
2022-08-01T03:04:14.890Z,2.08
2022-08-01T03:09:17.778Z,2.28
2022-08-01T03:14:23.022Z,1.85
2022-08-01T03:19:29.954Z,2.10
2022-08-01T03:24:33.323Z,1.52
2022-08-01T03:29:36.791Z,1.80
2022-08-01T03:34:40.978Z,1.50
2022-08-01T03:39:49.636Z,2.00
2022-08-01T03:45:13.524Z,1.65
2022-08-01T03:50:18.817Z,2.08
2022-08-01T03:55:22.886Z,1.67
2022-08-01T04:00:26.500Z,1.98
2022-08-01T04:05:30.688Z,1.40
2022-08-01T04:10:33.613Z,1.70
2022-08-01T04:15:37.080Z,1.60
2022-08-01T04:20:41.598Z,1.40
2022-08-01T04:25:45.325Z,1.35
2022-08-01T04:30:48.866Z,1.40
2022-08-01T04:36:02.639Z,1.30
2022-08-01T04:41:09.909Z,1.20
2022-08-01T04:46:13.025Z,1.70
2022-08-01T04:51:18.003Z,1.60
2022-08-01T04:56:21.733Z,1.48
2022-08-01T05:01:24.567Z,1.60
2022-08-01T05:06:28.657Z,2.53
2022-08-01T05:11:31.851Z,1.33
2022-08-01T05:16:34.754Z,1.50
2022-08-01T05:21:39.010Z,1.45
2022-08-01T05:26:41.874Z,1.50
2022-08-01T05:31:44.787Z,1.90
2022-08-01T05:36:52.964Z,2.05
2022-08-01T05:41:59.562Z,1.80
2022-08-01T05:47:03.627Z,2.10
2022-08-01T05:52:08.739Z,2.00
2022-08-01T05:57:11.724Z,1.88
2022-08-01T06:02:15.286Z,1.73
2022-08-01T06:07:19.506Z,1.80
2022-08-01T06:12:22.341Z,1.70
2022-08-01T06:17:26.089Z,1.90
2022-08-01T06:22:30.170Z,1.40
2022-08-01T06:27:36.159Z,1.45
2022-08-01T06:32:38.918Z,1.60
2022-08-01T06:37:43.626Z,1.38
2022-08-01T06:42:46.800Z,1.25
2022-08-01T06:47:50.475Z,1.35
2022-08-01T06:52:55.062Z,1.13
2022-08-01T06:57:58.179Z,1.27
2022-08-01T07:03:01.397Z,1.23
2022-08-01T07:08:06.001Z,1.23
2022-08-01T07:13:08.921Z,1.10
2022-08-01T07:18:11.649Z,1.20
2022-08-01T07:23:15.848Z,0.90
2022-08-01T07:28:18.650Z,1.05
2022-08-01T07:33:21.346Z,0.82
2022-08-01T07:38:25.594Z,1.00
2022-08-01T07:43:28.328Z,1.15
2022-08-01T07:48:31.252Z,1.17
2022-08-01T07:53:35.287Z,0.88
2022-08-01T07:58:38.012Z,1.27
2022-08-01T08:03:40.929Z,1.30
2022-08-01T08:08:45.021Z,1.00
2022-08-01T08:13:47.813Z,0.88
2022-08-01T08:18:50.566Z,0.50
2022-08-01T08:24:12.021Z,0.40
2022-08-01T08:29:15.870Z,0.50
2022-08-01T08:34:18.753Z,0.43
2022-08-01T08:39:23.080Z,0.50
2022-08-01T08:44:25.890Z,0.40
2022-08-01T08:49:35.912Z,0.60
2022-08-01T08:54:43.361Z,0.77
2022-08-01T08:59:46.497Z,0.45
2022-08-01T09:04:50.464Z,1.15
2022-08-01T09:09:54.498Z,0.52
2022-08-01T09:14:57.251Z,0.68
2022-08-01T09:20:00.023Z,0.68
2022-08-01T09:25:08.318Z,0.73
2022-08-01T09:30:13.270Z,0.70
2022-08-01T09:35:31.160Z,0.50
2022-08-01T09:40:51.516Z,0.50
2022-08-01T09:45:55.034Z,0.52
2022-08-01T09:51:04.382Z,0.50
2022-08-01T09:56:13.041Z,0.30
2022-08-01T10:01:15.799Z,0.40
2022-08-01T10:06:25.053Z,0.20
2022-08-01T10:11:36.118Z,0.20
2022-08-01T10:16:41.262Z,0.15
2022-08-01T10:21:58.737Z,0.32
2022-08-01T10:27:08.299Z,0.60
2022-08-01T10:32:12.299Z,0.52
2022-08-01T10:37:15.898Z,0.50
2022-08-01T10:42:20.258Z,0.30
2022-08-01T10:47:49.935Z,0.38
2022-08-01T10:53:15.287Z,1.45
2022-08-01T10:58:25.416Z,0.40
2022-08-01T11:03:56.104Z,0.32
2022-08-01T11:09:00.182Z,0.40
2022-08-01T11:14:09.294Z,0.52
2022-08-01T11:19:12.322Z,0.52
2022-08-01T11:24:15.234Z,0.52
2022-08-01T11:29:22.445Z,0.60
2022-08-01T11:34:54.472Z,0.82
2022-08-01T11:40:16.366Z,0.93
2022-08-01T11:45:21.772Z,1.30
2022-08-01T11:50:35.145Z,0.90
2022-08-01T11:55:38.094Z,0.85
2022-08-01T12:00:44.049Z,0.90
2022-08-01T12:05:49.923Z,0.88
2022-08-01T12:10:52.696Z,1.23
2022-08-01T12:16:11.485Z,1.00
2022-08-01T12:21:14.283Z,1.00
2022-08-01T12:26:28.610Z,1.33
2022-08-01T12:31:36.741Z,1.42
2022-08-01T12:36:39.494Z,1.20
2022-08-01T12:41:44.959Z,0.65
2022-08-01T12:46:53.571Z,0.90
2022-08-01T12:51:57.709Z,0.90
2022-08-01T12:57:00.505Z,1.00
2022-08-01T13:02:12.103Z,1.10
2022-08-01T13:07:14.875Z,1.20
2022-08-01T13:12:17.705Z,1.00
2022-08-01T13:17:33.436Z,1.17
2022-08-01T13:22:36.683Z,0.80
2022-08-01T13:27:39.466Z,0.60
2022-08-01T13:33:01.318Z,0.70
2022-08-01T13:38:04.200Z,0.77
2022-08-01T13:43:07.096Z,0.80
2022-08-01T13:48:12.889Z,0.60
2022-08-01T13:53:22.205Z,0.55
2022-08-01T13:58:25.567Z,0.50
2022-08-01T14:03:33.756Z,0.73
2022-08-01T14:08:36.918Z,0.60
2022-08-01T14:13:45.107Z,0.70
2022-08-01T14:18:51.372Z,0.55
2022-08-01T14:23:55.262Z,0.65
2022-08-01T14:28:58.333Z,0.80
2022-08-01T14:34:02.603Z,0.50
2022-08-01T14:39:05.323Z,0.60
2022-08-01T14:44:09.921Z,0.50
2022-08-01T14:49:14.326Z,0.60
2022-08-01T14:54:17.021Z,0.70
2022-08-01T14:59:30.023Z,0.60
2022-08-01T15:04:34.086Z,1.10
2022-08-01T15:09:36.854Z,0.60
2022-08-01T15:14:51.494Z,0.60
2022-08-01T15:19:56.503Z,0.50
2022-08-01T15:25:01.611Z,0.50
2022-08-01T15:30:06.065Z,0.50
2022-08-01T15:35:12.012Z,0.60
2022-08-01T15:40:14.848Z,0.40
2022-08-01T15:45:45.782Z,0.50
2022-08-01T15:50:44.315Z,0.40
2022-08-01T15:55:52.663Z,0.50
2022-08-01T16:00:55.653Z,0.52
2022-08-01T16:05:59.812Z,0.98
2022-08-01T16:11:03.181Z,1.10
2022-08-01T16:16:06.464Z,0.70
2022-08-01T16:21:11.816Z,1.08
2022-08-01T16:26:27.112Z,1.25
2022-08-01T16:31:37.572Z,1.17
2022-08-01T16:36:56.412Z,1.00
2022-08-01T16:41:59.277Z,1.00
2022-08-01T16:47:05.435Z,0.98
2022-08-01T16:52:10.151Z,0.88
2022-08-01T16:57:13.612Z,0.93
2022-08-01T17:02:16.824Z,1.10
2022-08-01T17:07:20.967Z,0.70
2022-08-01T17:12:24.022Z,0.60
2022-08-01T17:17:26.966Z,0.50
2022-08-01T17:22:31.541Z,0.50
2022-08-01T17:27:34.303Z,0.88
2022-08-01T17:32:37.371Z,0.70
2022-08-01T17:37:41.392Z,0.60
2022-08-01T17:42:44.549Z,0.40
2022-08-01T17:47:50.787Z,0.50
2022-08-01T17:52:55.257Z,0.50
2022-08-01T17:57:58.047Z,0.60
2022-08-01T18:03:00.813Z,0.50
2022-08-01T18:08:07.834Z,0.40
2022-08-01T18:13:10.658Z,0.47
2022-08-01T18:18:14.017Z,0.40
2022-08-01T18:23:18.227Z,0.70
2022-08-01T18:28:31.392Z,0.50
2022-08-01T18:33:37.245Z,0.40
2022-08-01T18:38:44.172Z,0.47
2022-08-01T18:43:48.608Z,0.40
2022-08-01T18:48:51.485Z,0.52
2022-08-01T18:53:57.763Z,0.40
2022-08-01T18:59:00.541Z,0.50
2022-08-01T19:04:03.493Z,0.47
2022-08-01T19:09:07.948Z,0.50
2022-08-01T19:14:11.779Z,0.38
2022-08-01T19:19:14.598Z,0.40
2022-08-01T19:24:31.960Z,0.90
2022-08-01T19:29:36.881Z,0.40
2022-08-01T19:34:49.778Z,0.40
2022-08-01T19:39:53.887Z,0.40
2022-08-01T19:44:57.847Z,0.40
2022-08-01T19:50:01.434Z,0.55
2022-08-01T19:55:06.920Z,0.52
2022-08-01T20:00:23.892Z,0.60
2022-08-01T20:05:31.267Z,0.50
2022-08-01T20:10:37.438Z,0.50
2022-08-01T20:15:40.167Z,0.50
2022-08-01T20:20:44.762Z,0.40
2022-08-01T20:25:51.709Z,0.50
2022-08-01T20:30:56.671Z,0.50
2022-08-01T20:36:00.860Z,0.43
2022-08-01T20:41:06.485Z,0.45
2022-08-01T20:46:09.494Z,0.50
2022-08-01T20:51:19.473Z,0.52
2022-08-01T20:56:30.493Z,0.60
2022-08-01T21:01:39.840Z,0.60
2022-08-01T21:06:45.178Z,0.40
2022-08-01T21:11:51.641Z,0.50
2022-08-01T21:16:59.892Z,0.73
2022-08-01T21:22:09.970Z,0.65
2022-08-01T21:27:17.142Z,0.65
2022-08-01T21:32:22.724Z,0.70
2022-08-01T21:37:25.523Z,0.50
2022-08-01T21:42:29.821Z,0.60
2022-08-01T21:47:32.599Z,0.60
2022-08-01T21:52:43.432Z,0.47
2022-08-01T21:58:13.680Z,0.55
2022-08-01T22:03:24.180Z,0.52
2022-08-01T22:08:30.766Z,0.60
2022-08-01T22:13:35.712Z,0.60
2022-08-01T22:18:39.747Z,0.75
2022-08-01T22:23:43.305Z,0.60
2022-08-01T22:28:47.525Z,0.60
2022-08-01T22:33:50.554Z,0.70
2022-08-01T22:38:53.241Z,0.73
2022-08-01T22:44:01.876Z,0.60
2022-08-01T22:49:11.492Z,0.70
2022-08-01T22:54:16.224Z,0.68
2022-08-01T22:59:27.998Z,0.70
2022-08-01T23:04:47.381Z,0.70
2022-08-01T23:09:53.921Z,0.70
2022-08-01T23:15:00.314Z,0.70
2022-08-01T23:20:06.018Z,0.70
2022-08-01T23:25:11.239Z,0.80
2022-08-01T23:30:15.430Z,0.80
2022-08-01T23:35:18.472Z,0.73
2022-08-01T23:40:24.999Z,0.90
2022-08-01T23:46:02.602Z,0.70
2022-08-01T23:50:52.793Z,0.93
2022-08-01T23:55:55.675Z,0.75
